Main page
METAR-TAF:

METAR-TAF

Airports :

Casino, Australia

latitude: 28-52-39S, longitude: 153-03-07E, elevation: 21 m

Current weather observation

The report was made 25 minutes ago, at 14:00 UTC
Wind 5 kt from the South/Southwest
Temperature 20°C
Humidity 88%
Pressure 1021 hPa

METAR: YCAS 221400Z AUTO 20005KT //// // ////// 20/18 Q1021

Time: 01:25 (14:25 UTC)


TAF: missing

Weather observations and forecasts of more than 4000 airports (METAR and TAF reports).

The available stations are represented by yellow and red dots on the map.

Hover mouse over dot to see the name of the station.

Then click to see weather observations and forecasts.

To change the map : click on the green buttons with a black cross to zoom in, on the green button with a dash to zoom out, or on the green arrows for adjacent maps.


METAR-TAF: